createdAt,value
2017-08-10T00:00:11.575Z,21.82
2017-08-10T00:00:52.148Z,21.83
2017-08-10T00:01:32.740Z,21.89
2017-08-10T00:02:13.356Z,21.79
2017-08-10T00:02:53.925Z,21.7
2017-08-10T00:03:34.494Z,21.8
2017-08-10T00:04:15.057Z,21.75
2017-08-10T00:04:55.654Z,21.64
2017-08-10T00:05:36.249Z,21.64
2017-08-10T00:06:16.836Z,21.73
2017-08-10T00:06:57.416Z,21.72
2017-08-10T00:07:37.980Z,21.75
2017-08-10T00:08:18.551Z,21.62
2017-08-10T00:08:59.126Z,21.72
2017-08-10T00:09:39.697Z,21.67
2017-08-10T00:10:20.261Z,21.7
2017-08-10T00:11:00.846Z,21.72
2017-08-10T00:11:41.441Z,21.73
2017-08-10T00:12:22.019Z,21.72
2017-08-10T00:13:02.595Z,21.73
2017-08-10T00:13:43.169Z,21.54
2017-08-10T00:14:23.741Z,21.66
2017-08-10T00:15:04.323Z,21.52
2017-08-10T00:15:44.933Z,21.66
2017-08-10T00:16:25.497Z,21.52
2017-08-10T00:17:06.058Z,21.69
2017-08-10T00:17:46.635Z,21.64
2017-08-10T00:18:27.203Z,21.51
2017-08-10T00:19:07.771Z,21.52
2017-08-10T00:19:48.357Z,21.55
2017-08-10T00:20:28.939Z,21.52
2017-08-10T00:21:09.513Z,21.6
2017-08-10T00:21:50.109Z,21.6
2017-08-10T00:22:30.664Z,21.52
2017-08-10T00:23:11.266Z,21.58
2017-08-10T00:23:51.834Z,21.55
2017-08-10T00:24:32.423Z,21.61
2017-08-10T00:25:13.004Z,21.5
2017-08-10T00:25:53.587Z,21.57
2017-08-10T00:26:34.190Z,21.54
2017-08-10T00:27:21.443Z,21.57
2017-08-10T00:28:02.061Z,21.52
2017-08-10T00:28:42.655Z,21.58
2017-08-10T00:29:23.234Z,21.58
2017-08-10T00:30:03.820Z,21.5
2017-08-10T00:30:44.406Z,21.5
2017-08-10T00:31:25.006Z,21.51
2017-08-10T00:32:05.582Z,21.5
2017-08-10T00:32:46.148Z,21.5
2017-08-10T00:33:26.729Z,21.57
2017-08-10T00:34:07.298Z,21.52
2017-08-10T00:34:47.886Z,21.46
2017-08-10T00:35:28.474Z,21.46
2017-08-10T00:36:09.048Z,21.58
2017-08-10T00:36:49.626Z,21.48
2017-08-10T00:37:30.196Z,21.54
2017-08-10T00:38:10.785Z,21.54
2017-08-10T00:38:51.394Z,21.57
2017-08-10T00:39:31.944Z,21.57
2017-08-10T00:40:12.518Z,21.48
2017-08-10T00:40:53.111Z,21.5
2017-08-10T00:41:34.562Z,21.57
2017-08-10T00:42:15.128Z,21.48
2017-08-10T00:42:55.704Z,21.51
2017-08-10T00:43:36.289Z,21.51
2017-08-10T00:44:16.879Z,21.55
2017-08-10T00:44:57.466Z,21.58
2017-08-10T00:45:38.048Z,21.42
2017-08-10T00:46:18.616Z,21.48
2017-08-10T00:46:59.184Z,21.48
2017-08-10T00:47:39.765Z,21.43
2017-08-10T00:48:20.325Z,21.48
2017-08-10T00:49:00.907Z,21.5
2017-08-10T00:49:41.497Z,21.43
2017-08-10T00:50:22.079Z,21.43
2017-08-10T00:51:02.655Z,21.48
2017-08-10T00:51:43.229Z,21.51
2017-08-10T00:52:23.794Z,21.46
2017-08-10T00:53:04.390Z,21.4
2017-08-10T00:53:44.979Z,21.51
2017-08-10T00:54:25.563Z,21.43
2017-08-10T00:55:06.142Z,21.45
2017-08-10T00:55:46.713Z,21.4
2017-08-10T00:56:27.304Z,21.51
2017-08-10T00:57:07.877Z,21.43
2017-08-10T00:57:48.453Z,21.42
2017-08-10T00:58:29.114Z,21.43
2017-08-10T00:59:09.634Z,21.43
2017-08-10T00:59:50.208Z,21.45
2017-08-10T01:00:30.770Z,21.51
2017-08-10T01:01:11.363Z,21.5
2017-08-10T01:01:51.959Z,21.45
2017-08-10T01:02:32.533Z,21.48
2017-08-10T01:03:13.105Z,21.54
2017-08-10T01:03:53.727Z,21.42
2017-08-10T01:04:34.306Z,21.5
2017-08-10T01:05:14.889Z,21.4
2017-08-10T01:05:55.468Z,21.43
2017-08-10T01:06:36.034Z,21.45
2017-08-10T01:07:16.609Z,21.48
2017-08-10T01:07:57.214Z,21.52
2017-08-10T01:08:37.776Z,21.42
2017-08-10T01:09:18.368Z,21.46
2017-08-10T01:09:58.957Z,21.43
2017-08-10T01:10:39.567Z,21.43
2017-08-10T01:11:20.158Z,21.5
2017-08-10T01:12:00.745Z,21.45
2017-08-10T01:12:41.332Z,21.52
2017-08-10T01:13:21.913Z,21.42
2017-08-10T01:14:02.507Z,21.45
2017-08-10T01:14:43.076Z,21.55
2017-08-10T01:15:23.676Z,21.45
2017-08-10T01:16:04.277Z,21.46
2017-08-10T01:16:44.865Z,21.46
2017-08-10T01:17:25.427Z,21.5
2017-08-10T01:18:06.018Z,21.57
2017-08-10T01:18:46.635Z,21.57
2017-08-10T01:19:27.210Z,21.51
2017-08-10T01:20:07.794Z,21.51
2017-08-10T01:20:48.381Z,21.52
2017-08-10T01:21:28.966Z,21.48
2017-08-10T01:22:09.553Z,21.46
2017-08-10T01:22:50.159Z,21.52
2017-08-10T01:23:30.754Z,21.55
2017-08-10T01:24:11.330Z,21.5
2017-08-10T01:24:51.928Z,21.52
2017-08-10T01:25:32.493Z,21.46
2017-08-10T01:26:13.071Z,21.52
2017-08-10T01:26:53.645Z,21.54
2017-08-10T01:27:34.226Z,21.55
2017-08-10T01:28:14.807Z,21.48
2017-08-10T01:28:55.372Z,21.6
2017-08-10T01:29:35.955Z,21.48
2017-08-10T01:30:16.563Z,21.54
2017-08-10T01:30:57.141Z,21.51
2017-08-10T01:31:37.774Z,21.57
2017-08-10T01:32:18.346Z,21.5
2017-08-10T01:32:58.928Z,21.55
2017-08-10T01:33:39.513Z,21.52
2017-08-10T01:34:20.082Z,21.61
2017-08-10T01:35:00.674Z,21.46
2017-08-10T01:35:41.221Z,21.51
2017-08-10T01:36:21.791Z,21.51
2017-08-10T01:37:02.374Z,21.58
2017-08-10T01:37:42.940Z,21.57
2017-08-10T01:38:23.515Z,21.45
2017-08-10T01:39:04.098Z,21.48
2017-08-10T01:39:44.703Z,21.54
2017-08-10T01:40:25.290Z,21.43
2017-08-10T01:41:05.865Z,21.46
2017-08-10T01:41:46.442Z,21.43
2017-08-10T01:42:27.024Z,21.52
2017-08-10T01:43:07.597Z,21.4
2017-08-10T01:43:48.163Z,21.4
2017-08-10T01:44:28.753Z,21.5
2017-08-10T01:45:09.325Z,21.4
2017-08-10T01:45:49.908Z,21.37
2017-08-10T01:46:30.495Z,21.39
2017-08-10T01:47:11.077Z,21.32
2017-08-10T01:47:51.667Z,21.36
2017-08-10T01:48:32.255Z,21.32
2017-08-10T01:49:12.822Z,21.22
2017-08-10T01:49:53.407Z,21.21
2017-08-10T01:50:33.983Z,21.15
2017-08-10T01:51:14.554Z,21.21
2017-08-10T01:51:55.122Z,21.06
2017-08-10T01:52:35.700Z,21.2
2017-08-10T01:53:16.304Z,21.07
2017-08-10T01:53:56.891Z,21.11
2017-08-10T01:54:37.447Z,21.03
2017-08-10T01:55:18.034Z,21.09
2017-08-10T01:55:58.607Z,21.09
2017-08-10T01:56:39.185Z,20.96
2017-08-10T01:57:19.764Z,21.03
2017-08-10T01:58:00.345Z,20.99
2017-08-10T01:58:40.919Z,20.95
2017-08-10T01:59:21.479Z,20.93
2017-08-10T02:00:02.066Z,20.82
2017-08-10T02:00:42.655Z,20.81
2017-08-10T02:01:23.215Z,20.84
2017-08-10T02:02:03.791Z,20.77
2017-08-10T02:02:44.369Z,20.74
2017-08-10T02:03:24.963Z,20.81
2017-08-10T02:04:05.521Z,20.69
2017-08-10T02:04:46.092Z,20.75
2017-08-10T02:05:26.669Z,20.67
2017-08-10T02:06:07.239Z,20.66
2017-08-10T02:06:47.840Z,20.67
2017-08-10T02:07:28.417Z,20.67
2017-08-10T02:08:08.998Z,20.62
2017-08-10T02:08:49.570Z,20.59
2017-08-10T02:09:30.140Z,20.58
2017-08-10T02:10:10.709Z,20.48
2017-08-10T02:10:51.278Z,20.52
2017-08-10T02:11:31.861Z,20.51
2017-08-10T02:12:12.447Z,20.52
2017-08-10T02:12:53.023Z,20.5
2017-08-10T02:13:33.591Z,20.62
2017-08-10T02:14:14.174Z,20.51
2017-08-10T02:14:54.751Z,20.51
2017-08-10T02:15:35.331Z,20.59
2017-08-10T02:16:15.906Z,20.5
2017-08-10T02:16:56.487Z,20.48
2017-08-10T02:17:37.102Z,20.44
2017-08-10T02:18:19.186Z,20.48
2017-08-10T02:18:59.768Z,20.43
2017-08-10T02:19:40.331Z,20.43
2017-08-10T02:20:20.900Z,20.48
2017-08-10T02:21:01.475Z,20.36
2017-08-10T02:21:42.050Z,20.47
2017-08-10T02:22:22.624Z,20.4
2017-08-10T02:23:03.188Z,20.43
2017-08-10T02:23:43.763Z,20.29
2017-08-10T02:24:24.332Z,20.43
2017-08-10T02:25:04.907Z,20.37
2017-08-10T02:25:45.473Z,20.36
2017-08-10T02:26:26.056Z,20.31
2017-08-10T02:27:06.623Z,20.29
2017-08-10T02:27:47.209Z,20.29
2017-08-10T02:28:27.776Z,20.31
2017-08-10T02:29:08.343Z,20.24
2017-08-10T02:29:48.920Z,20.24
2017-08-10T02:30:29.506Z,20.16
2017-08-10T02:31:10.100Z,20.16
2017-08-10T02:31:50.691Z,20.16
2017-08-10T02:32:31.268Z,20.28
2017-08-10T02:33:11.859Z,20.28
2017-08-10T02:33:52.446Z,20.22
2017-08-10T02:34:33.024Z,20.14
2017-08-10T02:35:13.594Z,20.14
2017-08-10T02:35:54.164Z,20.13
2017-08-10T02:36:34.742Z,20.19
2017-08-10T02:37:15.318Z,20.18
2017-08-10T02:37:55.879Z,20.19
2017-08-10T02:38:36.489Z,20.18
2017-08-10T02:39:17.061Z,20.18
2017-08-10T02:39:57.628Z,20.1
2017-08-10T02:40:38.199Z,20.24
2017-08-10T02:41:18.772Z,20.07
2017-08-10T02:41:59.346Z,20.13
2017-08-10T02:42:39.928Z,20.16
2017-08-10T02:43:20.506Z,20.07
2017-08-10T02:44:01.088Z,20.07
2017-08-10T02:44:41.653Z,20.1
2017-08-10T02:45:22.226Z,20.06
2017-08-10T02:46:02.810Z,20.07
2017-08-10T02:46:43.365Z,19.95
2017-08-10T02:47:23.942Z,19.92
2017-08-10T02:48:04.528Z,20.03
2017-08-10T02:48:45.095Z,19.95
2017-08-10T02:49:25.671Z,20
2017-08-10T02:50:06.232Z,19.95
2017-08-10T02:50:46.801Z,19.95
2017-08-10T02:51:27.366Z,20.04
2017-08-10T02:52:07.938Z,19.96
2017-08-10T02:52:48.514Z,20
2017-08-10T02:53:29.078Z,20
2017-08-10T02:54:09.669Z,19.91
2017-08-10T02:54:50.257Z,20.02
2017-08-10T02:55:30.830Z,19.94
2017-08-10T02:56:11.396Z,19.95
2017-08-10T02:56:51.966Z,20.06
2017-08-10T02:57:32.547Z,19.91
2017-08-10T02:58:13.138Z,19.96
2017-08-10T02:58:53.713Z,19.94
2017-08-10T02:59:34.281Z,19.95
2017-08-10T03:00:14.860Z,20.02
2017-08-10T03:00:55.445Z,19.96
2017-08-10T03:01:36.026Z,19.94
2017-08-10T03:02:16.611Z,20.06
2017-08-10T03:02:57.185Z,20.06
2017-08-10T03:03:37.751Z,20.21
2017-08-10T03:04:18.326Z,20.16
2017-08-10T03:04:58.890Z,20.18
2017-08-10T03:05:39.464Z,20.19
2017-08-10T03:06:20.056Z,20.22
2017-08-10T03:07:00.626Z,20.31
2017-08-10T03:07:41.185Z,20.32
2017-08-10T03:08:21.749Z,20.36
2017-08-10T03:09:02.320Z,20.26
2017-08-10T03:09:42.892Z,20.29
2017-08-10T03:10:23.542Z,20.29
2017-08-10T03:11:04.163Z,20.25
2017-08-10T03:11:44.727Z,20.29
2017-08-10T03:12:25.337Z,20.31
2017-08-10T03:13:05.910Z,20.36
2017-08-10T03:13:46.488Z,20.37
2017-08-10T03:14:27.078Z,20.4
2017-08-10T03:15:07.648Z,20.24
2017-08-10T03:15:48.216Z,20.39
2017-08-10T03:16:28.813Z,20.44
2017-08-10T03:17:09.388Z,20.43
2017-08-10T03:17:49.968Z,20.41
2017-08-10T03:18:30.539Z,20.41
2017-08-10T03:20:07.894Z,20.4
2017-08-10T03:20:48.471Z,20.41
2017-08-10T03:21:29.049Z,20.4
2017-08-10T03:22:09.636Z,20.4
2017-08-10T03:22:50.215Z,20.4
2017-08-10T03:23:30.813Z,20.44
2017-08-10T03:24:11.374Z,20.32
2017-08-10T03:24:51.950Z,20.43
2017-08-10T03:25:32.534Z,20.51
2017-08-10T03:26:13.102Z,20.48
2017-08-10T03:26:53.693Z,20.52
2017-08-10T03:27:34.259Z,20.5
2017-08-10T03:28:14.839Z,20.51
2017-08-10T03:28:55.405Z,20.47
2017-08-10T03:29:35.995Z,20.56
2017-08-10T03:30:16.569Z,20.51
2017-08-10T03:30:57.143Z,20.56
2017-08-10T03:31:37.709Z,20.48
2017-08-10T03:32:18.274Z,20.48
2017-08-10T03:32:58.843Z,20.55
2017-08-10T03:33:39.405Z,20.58
2017-08-10T03:34:19.970Z,20.58
2017-08-10T03:35:00.556Z,20.48
2017-08-10T03:35:41.123Z,20.56
2017-08-10T03:36:21.694Z,20.47
2017-08-10T03:37:02.256Z,20.6
2017-08-10T03:37:42.833Z,20.51
2017-08-10T03:38:23.401Z,20.43
2017-08-10T03:39:04.009Z,20.44
2017-08-10T03:39:44.585Z,20.43
2017-08-10T03:40:25.155Z,20.4
2017-08-10T03:41:05.726Z,20.51
2017-08-10T03:41:46.296Z,20.47
2017-08-10T03:42:26.870Z,20.36
2017-08-10T03:43:07.456Z,20.29
2017-08-10T03:43:48.011Z,20.34
2017-08-10T03:44:35.178Z,20.21
2017-08-10T03:45:15.753Z,20.11
2017-08-10T03:45:56.316Z,20.16
2017-08-10T03:46:36.914Z,20.07
2017-08-10T03:47:17.503Z,20.07
2017-08-10T03:47:58.090Z,19.96
2017-08-10T03:48:38.690Z,19.94
2017-08-10T03:49:19.277Z,19.94
2017-08-10T03:49:59.868Z,19.86
2017-08-10T03:50:40.470Z,19.92
2017-08-10T03:51:21.049Z,19.88
2017-08-10T03:52:01.623Z,19.85
2017-08-10T03:52:42.302Z,19.81
2017-08-10T03:53:22.895Z,19.84
2017-08-10T03:54:03.473Z,19.67
2017-08-10T03:54:44.065Z,19.7
2017-08-10T03:55:24.648Z,19.7
2017-08-10T03:56:05.254Z,19.67
2017-08-10T03:56:45.830Z,19.79
2017-08-10T03:57:26.416Z,19.73
2017-08-10T03:58:06.982Z,19.74
2017-08-10T03:58:47.561Z,19.58
2017-08-10T03:59:28.155Z,19.63
2017-08-10T04:00:08.718Z,19.71
2017-08-10T04:00:49.285Z,19.69
2017-08-10T04:01:29.860Z,19.64
2017-08-10T04:02:10.441Z,19.7
2017-08-10T04:02:51.020Z,19.66
2017-08-10T04:03:31.614Z,19.58
2017-08-10T04:04:12.177Z,19.58
2017-08-10T04:04:52.768Z,19.59
2017-08-10T04:05:33.355Z,19.64
2017-08-10T04:06:13.946Z,19.59
2017-08-10T04:06:54.538Z,19.55
2017-08-10T04:07:35.116Z,19.56
2017-08-10T04:08:15.699Z,19.55
2017-08-10T04:08:56.255Z,19.56
2017-08-10T04:09:36.829Z,19.63
2017-08-10T04:10:17.408Z,19.56
2017-08-10T04:10:57.993Z,19.51
2017-08-10T04:11:38.569Z,19.58
2017-08-10T04:12:19.140Z,19.58
2017-08-10T04:12:59.737Z,19.62
2017-08-10T04:13:40.312Z,19.66
2017-08-10T04:14:20.887Z,19.63
2017-08-10T04:15:01.457Z,19.58
2017-08-10T04:15:42.035Z,19.58
2017-08-10T04:16:22.614Z,19.59
2017-08-10T04:17:03.190Z,19.56
2017-08-10T04:17:43.763Z,19.56
2017-08-10T04:18:24.331Z,19.56
2017-08-10T04:19:04.935Z,19.62
2017-08-10T04:19:45.517Z,19.62
2017-08-10T04:20:26.075Z,19.55
2017-08-10T04:21:06.655Z,19.59
2017-08-10T04:21:47.229Z,19.54
2017-08-10T04:22:27.802Z,19.62
2017-08-10T04:23:08.365Z,19.59
2017-08-10T04:23:48.929Z,19.54
2017-08-10T04:24:29.481Z,19.54
2017-08-10T04:25:10.062Z,19.56
2017-08-10T04:25:50.618Z,19.63
2017-08-10T04:26:31.208Z,19.54
2017-08-10T04:27:11.774Z,19.48
2017-08-10T04:27:52.374Z,19.62
2017-08-10T04:28:32.925Z,19.58
2017-08-10T04:29:13.507Z,19.56
2017-08-10T04:29:54.112Z,19.56
2017-08-10T04:30:34.677Z,19.56
2017-08-10T04:31:15.288Z,19.49
2017-08-10T04:31:55.882Z,19.51
2017-08-10T04:32:36.464Z,19.48
2017-08-10T04:33:17.039Z,19.52
2017-08-10T04:33:57.604Z,19.47
2017-08-10T04:34:38.180Z,19.48
2017-08-10T04:35:18.747Z,19.48
2017-08-10T04:35:59.322Z,19.44
2017-08-10T04:36:39.899Z,19.41
2017-08-10T04:37:20.473Z,19.45
2017-08-10T04:38:01.034Z,19.49
2017-08-10T04:38:41.604Z,19.45
2017-08-10T04:39:22.216Z,19.48
2017-08-10T04:40:02.821Z,19.49
2017-08-10T04:40:43.398Z,19.45
2017-08-10T04:41:23.970Z,19.44
2017-08-10T04:42:04.529Z,19.48
2017-08-10T04:42:45.098Z,19.4
2017-08-10T04:43:25.670Z,19.44
2017-08-10T04:44:06.277Z,19.49
2017-08-10T04:44:46.881Z,19.41
2017-08-10T04:45:27.453Z,19.47
2017-08-10T04:46:08.028Z,19.4
2017-08-10T04:46:48.610Z,19.41
2017-08-10T04:47:29.208Z,19.45
2017-08-10T04:48:09.790Z,19.48
2017-08-10T04:48:50.378Z,19.45
2017-08-10T04:49:30.944Z,19.41
2017-08-10T04:50:11.506Z,19.47
2017-08-10T04:50:52.062Z,19.52
2017-08-10T04:51:32.632Z,19.44
2017-08-10T04:52:13.196Z,19.55
2017-08-10T04:52:53.768Z,19.51
2017-08-10T04:53:34.334Z,19.51
2017-08-10T04:54:14.901Z,19.49
2017-08-10T04:54:55.463Z,19.52
2017-08-10T04:55:36.014Z,19.47
2017-08-10T04:56:16.593Z,19.51
2017-08-10T04:56:57.155Z,19.52
2017-08-10T04:57:37.725Z,19.52
2017-08-10T04:58:18.310Z,19.47
2017-08-10T04:58:58.874Z,19.51
2017-08-10T04:59:39.451Z,19.41
2017-08-10T05:00:20.023Z,19.48
2017-08-10T05:01:00.633Z,19.54
2017-08-10T05:01:41.210Z,19.48
2017-08-10T05:02:21.778Z,19.47
2017-08-10T05:03:02.360Z,19.4
2017-08-10T05:03:42.932Z,19.45
2017-08-10T05:04:23.503Z,19.44
2017-08-10T05:05:04.086Z,19.45
2017-08-10T05:05:44.665Z,19.51
2017-08-10T05:06:25.258Z,19.49
2017-08-10T05:07:05.846Z,19.48
2017-08-10T05:07:46.420Z,19.51
2017-08-10T05:08:27.039Z,19.45
2017-08-10T05:09:07.611Z,19.52
2017-08-10T05:09:48.197Z,19.62
2017-08-10T05:10:28.781Z,19.48
2017-08-10T05:11:09.376Z,19.63
2017-08-10T05:11:49.973Z,19.62
2017-08-10T05:12:30.538Z,19.56
2017-08-10T05:13:11.098Z,19.54
2017-08-10T05:13:51.669Z,19.59
2017-08-10T05:14:32.238Z,19.56
2017-08-10T05:15:12.815Z,19.67
2017-08-10T05:15:53.382Z,19.58
2017-08-10T05:16:33.943Z,19.51
2017-08-10T05:17:14.551Z,19.62
2017-08-10T05:17:55.139Z,19.51
2017-08-10T05:18:35.712Z,19.52
2017-08-10T05:19:16.317Z,19.59
2017-08-10T05:19:56.901Z,19.55
2017-08-10T05:20:37.488Z,19.56
2017-08-10T05:21:18.104Z,19.62
2017-08-10T05:21:58.735Z,19.58
2017-08-10T05:22:39.301Z,19.54
2017-08-10T05:23:19.883Z,19.58
2017-08-10T05:24:00.444Z,19.58
2017-08-10T05:24:41.075Z,19.59
2017-08-10T05:25:21.652Z,19.58
2017-08-10T05:26:02.285Z,19.66
2017-08-10T05:26:42.880Z,19.66
2017-08-10T05:27:23.446Z,19.64
2017-08-10T05:28:04.016Z,19.54
2017-08-10T05:28:44.595Z,19.64
2017-08-10T05:29:25.172Z,19.71
2017-08-10T05:30:05.749Z,19.67
2017-08-10T05:30:46.310Z,19.62
2017-08-10T05:31:26.901Z,19.67
2017-08-10T05:32:07.486Z,19.66
2017-08-10T05:32:48.120Z,19.69
2017-08-10T05:33:29.665Z,19.66
2017-08-10T05:34:10.224Z,19.63
2017-08-10T05:34:51.007Z,19.69
2017-08-10T05:35:31.623Z,19.63
2017-08-10T05:36:12.205Z,19.69
2017-08-10T05:36:52.776Z,19.71
2017-08-10T05:37:33.347Z,19.63
2017-08-10T05:38:13.921Z,19.66
2017-08-10T05:38:54.559Z,19.64
2017-08-10T05:39:35.383Z,19.64
2017-08-10T05:40:16.085Z,19.58
2017-08-10T05:40:56.795Z,19.58
2017-08-10T05:41:37.285Z,19.55
2017-08-10T05:42:17.853Z,19.59
2017-08-10T05:42:58.426Z,19.51
2017-08-10T05:43:38.980Z,19.54
2017-08-10T05:44:19.544Z,19.51
2017-08-10T05:45:00.233Z,19.51
2017-08-10T05:45:40.987Z,19.54
2017-08-10T05:46:21.607Z,19.52
2017-08-10T05:47:02.234Z,19.64
2017-08-10T05:47:43.095Z,19.54
2017-08-10T05:48:23.922Z,19.59
2017-08-10T05:49:04.491Z,19.58
2017-08-10T05:49:45.171Z,19.62
2017-08-10T05:50:25.759Z,19.58
2017-08-10T05:51:06.346Z,19.58
2017-08-10T05:51:46.971Z,19.67
2017-08-10T05:52:27.621Z,19.7
2017-08-10T05:53:08.221Z,19.66
2017-08-10T05:53:48.829Z,19.63
2017-08-10T05:54:29.413Z,19.66
2017-08-10T05:55:10.046Z,19.64
2017-08-10T05:55:50.613Z,19.73
2017-08-10T05:56:31.195Z,19.66
2017-08-10T05:57:11.795Z,19.67
2017-08-10T05:57:52.372Z,19.73
2017-08-10T05:58:32.980Z,19.76
2017-08-10T05:59:13.556Z,19.82
2017-08-10T05:59:54.117Z,19.84
2017-08-10T06:00:34.680Z,19.79
2017-08-10T06:01:15.268Z,19.76
2017-08-10T06:01:55.841Z,19.84
2017-08-10T06:02:36.414Z,19.81
2017-08-10T06:03:16.988Z,19.79
2017-08-10T06:03:57.596Z,19.88
2017-08-10T06:04:38.179Z,19.92
2017-08-10T06:05:18.758Z,19.91
2017-08-10T06:05:59.324Z,19.84
2017-08-10T06:06:39.882Z,19.88
2017-08-10T06:07:20.445Z,19.92
2017-08-10T06:08:01.028Z,19.91
2017-08-10T06:08:41.584Z,19.85
2017-08-10T06:09:22.149Z,19.89
2017-08-10T06:10:02.724Z,19.85
2017-08-10T06:10:43.316Z,19.86
2017-08-10T06:11:23.946Z,19.89
2017-08-10T06:12:04.540Z,19.89
2017-08-10T06:12:45.092Z,19.85
2017-08-10T06:13:25.670Z,19.86
2017-08-10T06:14:06.247Z,19.92
2017-08-10T06:14:46.817Z,19.96
2017-08-10T06:15:27.413Z,19.89
2017-08-10T06:16:08.006Z,19.85
2017-08-10T06:16:48.577Z,19.91
2017-08-10T06:17:29.152Z,19.95
2017-08-10T06:18:09.924Z,19.92
2017-08-10T06:18:50.517Z,19.89
2017-08-10T06:19:31.086Z,19.99
2017-08-10T06:20:11.650Z,20
2017-08-10T06:20:52.229Z,19.99
2017-08-10T06:21:32.814Z,19.95
2017-08-10T06:22:13.414Z,20.03
2017-08-10T06:22:53.994Z,19.94
2017-08-10T06:23:34.568Z,20.02
2017-08-10T06:24:15.149Z,20.04
2017-08-10T06:24:55.730Z,20.04
2017-08-10T06:25:36.334Z,20.09
2017-08-10T06:26:16.905Z,20.03
2017-08-10T06:26:57.470Z,20.16
2017-08-10T06:27:38.051Z,20.16
2017-08-10T06:28:18.701Z,20.11
2017-08-10T06:28:59.348Z,20.13
2017-08-10T06:29:39.936Z,20.13
2017-08-10T06:30:20.591Z,20.18
2017-08-10T06:31:01.167Z,20.1
2017-08-10T06:31:41.776Z,20.16
2017-08-10T06:32:22.345Z,20.26
2017-08-10T06:33:02.932Z,20.25
2017-08-10T06:33:43.512Z,20.21
2017-08-10T06:34:24.089Z,20.26
2017-08-10T06:35:04.650Z,20.34
2017-08-10T06:35:45.240Z,20.22
2017-08-10T06:36:25.818Z,20.32
2017-08-10T06:37:06.408Z,20.22
2017-08-10T06:37:47.006Z,20.29
2017-08-10T06:38:27.604Z,20.31
2017-08-10T06:39:08.184Z,20.25
2017-08-10T06:39:48.757Z,20.36
2017-08-10T06:40:29.368Z,20.29
2017-08-10T06:41:09.932Z,20.36
2017-08-10T06:41:50.504Z,20.28
2017-08-10T06:42:31.067Z,20.22
2017-08-10T06:43:11.633Z,20.32
2017-08-10T06:43:52.224Z,20.37
2017-08-10T06:44:32.811Z,20.31
2017-08-10T06:45:13.366Z,20.26
2017-08-10T06:45:53.975Z,20.28
2017-08-10T06:46:34.541Z,20.41
2017-08-10T06:47:15.107Z,20.48
2017-08-10T06:47:55.695Z,20.43
2017-08-10T06:48:36.312Z,20.47
2017-08-10T06:49:16.910Z,20.39
2017-08-10T06:49:57.493Z,20.41
2017-08-10T06:50:38.079Z,20.37
2017-08-10T06:51:18.657Z,20.47
2017-08-10T06:51:59.218Z,20.43
2017-08-10T06:52:39.829Z,20.43
2017-08-10T06:53:20.392Z,20.43
2017-08-10T06:54:00.965Z,20.56
2017-08-10T06:54:41.558Z,20.41
2017-08-10T06:55:22.149Z,20.43
2017-08-10T06:56:02.715Z,20.39
2017-08-10T06:56:43.301Z,20.48
2017-08-10T06:57:23.878Z,20.44
2017-08-10T06:58:04.480Z,20.41
2017-08-10T06:58:45.011Z,20.34
2017-08-10T06:59:25.615Z,20.37
2017-08-10T07:00:06.213Z,20.5
2017-08-10T07:00:46.779Z,20.5
2017-08-10T07:01:27.397Z,20.5
2017-08-10T07:02:07.957Z,20.41
2017-08-10T07:02:48.532Z,20.44
2017-08-10T07:03:29.104Z,20.5
2017-08-10T07:04:09.674Z,20.55
2017-08-10T07:04:50.249Z,20.48
2017-08-10T07:05:30.876Z,20.47
2017-08-10T07:06:11.451Z,20.47
2017-08-10T07:06:52.019Z,20.5
2017-08-10T07:07:32.597Z,20.51
2017-08-10T07:08:13.190Z,20.5
2017-08-10T07:08:53.818Z,20.51
2017-08-10T07:09:34.385Z,20.4
2017-08-10T07:10:14.977Z,20.51
2017-08-10T07:10:55.570Z,20.47
2017-08-10T07:11:36.168Z,20.5
2017-08-10T07:12:16.765Z,20.52
2017-08-10T07:12:57.370Z,20.55
2017-08-10T07:13:37.945Z,20.55
2017-08-10T07:14:18.532Z,20.51
2017-08-10T07:14:59.105Z,20.5
2017-08-10T07:15:39.685Z,20.55
2017-08-10T07:16:20.256Z,20.56
2017-08-10T07:17:00.830Z,20.56
2017-08-10T07:17:41.413Z,20.59
2017-08-10T07:18:21.998Z,20.66
2017-08-10T07:19:02.563Z,20.6
2017-08-10T07:19:43.186Z,20.6
2017-08-10T07:20:23.768Z,20.65
2017-08-10T07:21:04.329Z,20.65
2017-08-10T07:21:44.904Z,20.65
2017-08-10T07:22:25.487Z,20.69
2017-08-10T07:23:06.059Z,20.69
2017-08-10T07:23:46.632Z,20.67
2017-08-10T07:24:27.211Z,20.72
2017-08-10T07:25:07.785Z,20.7
2017-08-10T07:25:48.364Z,20.7
2017-08-10T07:26:28.938Z,20.77
2017-08-10T07:27:09.509Z,20.77
2017-08-10T07:27:50.077Z,20.78
2017-08-10T07:28:30.705Z,20.75
2017-08-10T07:29:11.274Z,20.77
2017-08-10T07:29:51.850Z,20.77
2017-08-10T07:30:32.424Z,20.78
2017-08-10T07:31:12.999Z,20.78
2017-08-10T07:31:53.574Z,20.8
2017-08-10T07:32:34.166Z,20.82
2017-08-10T07:33:14.752Z,20.84
2017-08-10T07:33:55.321Z,20.81
2017-08-10T07:34:35.906Z,20.8
2017-08-10T07:35:16.485Z,20.9
2017-08-10T07:35:57.071Z,20.88
2017-08-10T07:36:37.629Z,20.87
2017-08-10T07:37:18.202Z,21
2017-08-10T07:37:58.775Z,20.96
2017-08-10T07:38:39.383Z,21.06
2017-08-10T07:39:19.954Z,21.02
2017-08-10T07:40:00.530Z,21.07
2017-08-10T07:40:41.103Z,21.07
2017-08-10T07:41:21.667Z,21.15
2017-08-10T07:42:02.234Z,21.15
2017-08-10T07:42:42.812Z,21.09
2017-08-10T07:43:23.397Z,21.09
2017-08-10T07:44:03.961Z,21.12
2017-08-10T07:44:44.566Z,21.17
2017-08-10T07:45:25.178Z,21.15
2017-08-10T07:46:05.763Z,21.21
2017-08-10T07:46:46.346Z,21.07
2017-08-10T07:47:26.943Z,21.12
2017-08-10T07:48:07.517Z,21.15
2017-08-10T07:48:48.089Z,21.09
2017-08-10T07:49:28.668Z,21.14
2017-08-10T07:50:09.246Z,21.18
2017-08-10T07:50:49.823Z,21.14
2017-08-10T07:51:30.455Z,21.05
2017-08-10T07:52:11.026Z,21.12
2017-08-10T07:52:51.594Z,21.22
2017-08-10T07:53:32.210Z,21.12
2017-08-10T07:54:12.800Z,21.17
2017-08-10T07:54:53.368Z,21.22
2017-08-10T07:55:33.959Z,21.2
2017-08-10T07:56:14.540Z,21.21
2017-08-10T07:56:55.154Z,21.25
2017-08-10T07:57:35.694Z,21.25
2017-08-10T07:58:16.258Z,21.22
2017-08-10T07:58:56.855Z,21.27
2017-08-10T07:59:37.452Z,21.36
2017-08-10T08:00:18.110Z,21.35
2017-08-10T08:00:58.610Z,21.3
2017-08-10T08:01:39.182Z,21.35
2017-08-10T08:02:19.774Z,21.3
2017-08-10T08:03:00.394Z,21.39
2017-08-10T08:03:40.982Z,21.33
2017-08-10T08:04:21.566Z,21.32
2017-08-10T08:05:02.197Z,21.36
2017-08-10T08:05:42.784Z,21.33
2017-08-10T08:06:23.360Z,21.35
2017-08-10T08:07:03.956Z,21.37
2017-08-10T08:07:44.539Z,21.39
2017-08-10T08:08:25.117Z,21.36
2017-08-10T08:09:05.714Z,21.35
2017-08-10T08:09:46.302Z,21.35
2017-08-10T08:10:26.886Z,21.3
2017-08-10T08:11:07.455Z,21.35
2017-08-10T08:11:48.027Z,21.33
2017-08-10T08:12:28.594Z,21.32
2017-08-10T08:13:09.185Z,21.39
2017-08-10T08:13:49.891Z,21.33
2017-08-10T08:14:30.477Z,21.42
2017-08-10T08:15:11.066Z,21.4
2017-08-10T08:15:51.642Z,21.39
2017-08-10T08:16:32.246Z,21.39
2017-08-10T08:17:12.828Z,21.4
2017-08-10T08:17:53.397Z,21.37
2017-08-10T08:18:33.967Z,21.39
2017-08-10T08:19:14.571Z,21.33
2017-08-10T08:19:55.149Z,21.4
2017-08-10T08:20:35.733Z,21.42
2017-08-10T08:21:16.311Z,21.43
2017-08-10T08:21:56.881Z,21.43
2017-08-10T08:22:37.456Z,21.48
2017-08-10T08:23:18.063Z,21.42
2017-08-10T08:23:58.618Z,21.45
2017-08-10T08:24:39.221Z,21.43
2017-08-10T08:25:19.808Z,21.5
2017-08-10T08:26:00.383Z,21.37
2017-08-10T08:26:40.965Z,21.4
2017-08-10T08:27:21.528Z,21.45
2017-08-10T08:28:02.111Z,21.52
2017-08-10T08:28:42.704Z,21.5
2017-08-10T08:29:23.282Z,21.36
2017-08-10T08:30:03.912Z,21.43
2017-08-10T08:30:44.516Z,21.54
2017-08-10T08:31:25.105Z,21.46
2017-08-10T08:32:05.680Z,21.48
2017-08-10T08:32:46.279Z,21.52
2017-08-10T08:33:26.861Z,21.51
2017-08-10T08:34:07.480Z,21.64
2017-08-10T08:34:48.065Z,21.58
2017-08-10T08:35:28.642Z,21.57
2017-08-10T08:36:09.211Z,21.52
2017-08-10T08:36:49.786Z,21.61
2017-08-10T08:37:30.356Z,21.72
2017-08-10T08:38:10.924Z,21.64
2017-08-10T08:38:51.496Z,21.72
2017-08-10T08:39:32.082Z,21.66
2017-08-10T08:40:12.664Z,21.75
2017-08-10T08:40:53.253Z,21.69
2017-08-10T08:41:33.839Z,21.76
2017-08-10T08:42:14.431Z,21.75
2017-08-10T08:42:55.004Z,21.69
2017-08-10T08:43:35.590Z,21.73
2017-08-10T08:44:16.162Z,21.76
2017-08-10T08:44:56.732Z,21.64
2017-08-10T08:45:37.342Z,21.77